createdAt,value
2018-03-11T00:00:58.607Z,99.5
2018-03-11T00:01:58.602Z,99.54
2018-03-11T00:02:58.333Z,99.59
2018-03-11T00:03:58.580Z,99.59
2018-03-11T00:04:58.569Z,99.59
2018-03-11T00:05:58.304Z,99.59
2018-03-11T00:06:58.546Z,99.5
2018-03-11T00:07:58.535Z,99.5
2018-03-11T00:08:58.532Z,99.5
2018-03-11T00:09:58.514Z,99.59
2018-03-11T00:10:58.506Z,99.4
2018-03-11T00:11:58.502Z,99.21
2018-03-11T00:12:58.232Z,99.02
2018-03-11T00:13:58.477Z,98.93
2018-03-11T00:14:58.465Z,99.59
2018-03-11T00:15:58.202Z,98.83
2018-03-11T00:16:58.457Z,98.83
2018-03-11T00:17:58.434Z,98.83
2018-03-11T00:18:58.428Z,99.11
2018-03-11T00:19:58.416Z,98.88
2018-03-11T00:20:58.405Z,98.88
2018-03-11T00:21:58.398Z,98.93
2018-03-11T00:22:58.384Z,98.83
2018-03-11T00:23:58.382Z,98.97
2018-03-11T00:24:58.363Z,98.88
2018-03-11T00:25:58.354Z,99.16
2018-03-11T00:26:58.342Z,98.88
2018-03-11T00:27:58.077Z,98.79
2018-03-11T00:28:58.067Z,98.79
2018-03-11T00:29:58.312Z,99.35
2018-03-11T00:30:58.302Z,98.79
2018-03-11T00:31:58.290Z,98.79
2018-03-11T00:32:58.284Z,98.88
2018-03-11T00:33:58.273Z,98.88
2018-03-11T00:34:58.262Z,98.79
2018-03-11T00:35:58.253Z,98.69
2018-03-11T00:36:58.242Z,98.69
2018-03-11T00:37:58.228Z,98.88
2018-03-11T00:38:58.222Z,98.79
2018-03-11T00:39:58.211Z,98.79
2018-03-11T00:40:58.197Z,98.79
2018-03-11T00:41:58.193Z,99.07
2018-03-11T00:42:58.180Z,99.35
2018-03-11T00:43:58.170Z,99.16
2018-03-11T00:44:58.159Z,99.16
2018-03-11T00:45:57.892Z,99.35
2018-03-11T00:46:58.139Z,99.35
2018-03-11T00:47:57.874Z,99.35
2018-03-11T00:48:58.121Z,99.16
2018-03-11T00:49:58.107Z,98.88
2018-03-11T00:50:58.093Z,98.97
2018-03-11T00:51:58.086Z,99.44
2018-03-11T00:52:58.077Z,99.35
2018-03-11T00:53:58.065Z,99.54
2018-03-11T00:54:58.055Z,99.35
2018-03-11T00:55:58.047Z,99.44
2018-03-11T00:56:58.034Z,99.44
2018-03-11T00:57:58.022Z,99.35
2018-03-11T00:58:58.012Z,99.35
2018-03-11T00:59:58.009Z,99.35
2018-03-11T01:00:57.990Z,99.16
2018-03-11T01:01:57.983Z,99.4
2018-03-11T01:02:57.972Z,99.44
2018-03-11T01:03:57.963Z,99.16
2018-03-11T01:04:57.967Z,99.07
2018-03-11T01:05:57.938Z,99.21
2018-03-11T01:06:57.936Z,99.16
2018-03-11T01:07:57.922Z,98.79
2018-03-11T01:08:57.909Z,98.88
2018-03-11T01:09:57.912Z,98.88
2018-03-11T01:10:57.884Z,98.88
2018-03-11T01:11:57.878Z,99.35
2018-03-11T01:12:57.867Z,98.69
2018-03-11T01:13:57.852Z,98.88
2018-03-11T01:14:57.848Z,98.88
2018-03-11T01:15:57.836Z,98.93
2018-03-11T01:16:57.568Z,98.79
2018-03-11T01:17:57.816Z,98.79
2018-03-11T01:18:57.800Z,98.88
2018-03-11T01:19:57.793Z,98.88
2018-03-11T01:20:57.779Z,98.79
2018-03-11T01:21:57.771Z,98.79
2018-03-11T01:22:57.764Z,98.79
2018-03-11T01:23:57.496Z,98.79
2018-03-11T01:24:57.742Z,98.79
2018-03-11T01:25:57.729Z,98.79
2018-03-11T01:26:57.743Z,98.88
2018-03-11T01:27:57.710Z,98.97
2018-03-11T01:28:57.698Z,99.07
2018-03-11T01:29:57.688Z,99.26
2018-03-11T01:30:57.678Z,98.97
2018-03-11T01:31:57.668Z,99.16
2018-03-11T01:32:57.668Z,98.97
2018-03-11T01:33:57.649Z,98.88
2018-03-11T01:34:57.692Z,99.16
2018-03-11T01:35:57.626Z,98.5
2018-03-11T01:36:57.611Z,98.59
2018-03-11T01:37:57.619Z,98.97
2018-03-11T01:38:57.594Z,99.07
2018-03-11T01:39:57.582Z,98.88
2018-03-11T01:40:57.571Z,99.07
2018-03-11T01:41:57.308Z,98.88
2018-03-11T01:42:57.549Z,98.69
2018-03-11T01:43:57.542Z,98.4
2018-03-11T01:44:57.528Z,98.79
2018-03-11T01:45:57.520Z,98.59
2018-03-11T01:46:57.509Z,98.4
2018-03-11T01:47:57.502Z,98.79
2018-03-11T01:48:57.538Z,98.59
2018-03-11T01:49:57.482Z,98.69
2018-03-11T01:50:57.471Z,98.69
2018-03-11T01:51:57.206Z,98.59
2018-03-11T01:52:57.455Z,98.59
2018-03-11T01:53:57.442Z,98.79
2018-03-11T01:54:57.430Z,98.69
2018-03-11T01:55:57.419Z,98.59
2018-03-11T01:56:57.406Z,98.59
2018-03-11T01:57:57.392Z,98.79
2018-03-11T01:58:57.385Z,98.79
2018-03-11T01:59:57.379Z,98.59
2018-03-11T02:00:57.362Z,98.4
2018-03-11T02:01:57.354Z,98.79
2018-03-11T02:02:57.352Z,98.79
2018-03-11T02:03:57.337Z,98.69
2018-03-11T02:04:57.320Z,98.59
2018-03-11T02:05:57.309Z,98.59
2018-03-11T02:06:57.299Z,98.79
2018-03-11T02:07:57.293Z,98.69
2018-03-11T02:08:57.329Z,98.69
2018-03-11T02:09:57.272Z,98.79
2018-03-11T02:10:57.258Z,98.79
2018-03-11T02:11:57.246Z,98.69
2018-03-11T02:12:57.235Z,98.69
2018-03-11T02:13:57.229Z,98.79
2018-03-11T02:14:57.212Z,98.79
2018-03-11T02:15:57.203Z,98.79
2018-03-11T02:16:56.937Z,98.79
2018-03-11T02:17:57.182Z,98.59
2018-03-11T02:18:57.170Z,98.88
2018-03-11T02:19:57.160Z,98.59
2018-03-11T02:20:57.148Z,98.73
2018-03-11T02:21:57.151Z,98.54
2018-03-11T02:22:57.126Z,98.54
2018-03-11T02:23:57.119Z,98.79
2018-03-11T02:24:57.106Z,98.83
2018-03-11T02:25:57.104Z,99.07
2018-03-11T02:26:57.084Z,98.73
2018-03-11T02:27:57.074Z,99.11
2018-03-11T02:28:57.063Z,99.11
2018-03-11T02:29:57.054Z,99.11
2018-03-11T02:30:56.788Z,99.02
2018-03-11T02:31:57.028Z,98.92
2018-03-11T02:32:57.022Z,98.83
2018-03-11T02:33:57.016Z,98.92
2018-03-11T02:34:56.996Z,99.11
2018-03-11T02:35:56.986Z,99.11
2018-03-11T02:36:56.981Z,99.11
2018-03-11T02:37:56.979Z,99.02
2018-03-11T02:38:56.960Z,99.02
2018-03-11T02:39:56.943Z,99.02
2018-03-11T02:40:56.935Z,98.73
2018-03-11T02:41:56.924Z,99.11
2018-03-11T02:42:56.917Z,98.83
2018-03-11T02:43:56.900Z,99.02
2018-03-11T02:44:56.890Z,98.92
2018-03-11T02:45:56.896Z,98.92
2018-03-11T02:46:56.870Z,98.73
2018-03-11T02:47:56.865Z,98.83
2018-03-11T02:48:56.592Z,98.73
2018-03-11T02:49:56.841Z,98.83
2018-03-11T02:50:56.825Z,99.11
2018-03-11T02:51:56.814Z,99.02
2018-03-11T02:52:56.803Z,99.3
2018-03-11T02:53:56.792Z,99.3
2018-03-11T02:54:56.781Z,99.02
2018-03-11T02:55:56.773Z,99.11
2018-03-11T02:56:56.765Z,98.83
2018-03-11T02:57:56.489Z,98.83
2018-03-11T02:58:56.738Z,99.49
2018-03-11T02:59:56.726Z,98.92
2018-03-11T03:00:56.712Z,99.4
2018-03-11T03:01:56.701Z,99.26
2018-03-11T03:02:56.693Z,99.3
2018-03-11T03:03:56.678Z,99.35
2018-03-11T03:04:56.668Z,99.63
2018-03-11T03:05:56.667Z,99.54
2018-03-11T03:06:56.647Z,99.54
2018-03-11T03:07:56.638Z,99.44
2018-03-11T03:08:56.627Z,99.54
2018-03-11T03:09:56.610Z,99.54
2018-03-11T03:10:56.602Z,99.63
2018-03-11T03:11:56.593Z,99.44
2018-03-11T03:12:56.580Z,99.54
2018-03-11T03:13:56.570Z,99.63
2018-03-11T03:14:56.556Z,99.54
2018-03-11T03:15:56.543Z,99.54
2018-03-11T03:16:56.531Z,99.26
2018-03-11T03:17:56.521Z,99.63
2018-03-11T03:18:56.506Z,99.63
2018-03-11T03:19:56.503Z,99.63
2018-03-11T03:20:56.488Z,99.35
2018-03-11T03:21:56.222Z,99.54
2018-03-11T03:22:56.469Z,99.54
2018-03-11T03:23:56.456Z,99.44
2018-03-11T03:24:56.446Z,99.44
2018-03-11T03:25:56.430Z,99.54
2018-03-11T03:26:56.422Z,99.26
2018-03-11T03:27:56.409Z,99.99
2018-03-11T03:28:56.396Z,99.91
2018-03-11T03:29:56.385Z,99.99
2018-03-11T03:30:56.502Z,99.82
2018-03-11T03:31:56.364Z,99.91
2018-03-11T03:32:56.350Z,99.99
2018-03-11T03:33:56.350Z,99.91
2018-03-11T03:34:56.331Z,99.91
2018-03-11T03:35:56.317Z,99.99
2018-03-11T03:36:56.305Z,99.99
2018-03-11T03:37:56.295Z,99.99
2018-03-11T03:38:56.281Z,99.63
2018-03-11T03:39:56.275Z,99.99
2018-03-11T03:40:56.262Z,99.82
2018-03-11T03:41:56.244Z,99.73
2018-03-11T03:42:56.237Z,99.99
2018-03-11T03:43:56.225Z,99.99
2018-03-11T03:44:56.217Z,99.91
2018-03-11T03:45:56.202Z,99.99
2018-03-11T03:46:56.191Z,99.99
2018-03-11T03:47:56.174Z,99.63
2018-03-11T03:48:56.168Z,99.91
2018-03-11T03:49:56.153Z,99.99
2018-03-11T03:50:56.143Z,99.99
2018-03-11T03:51:56.130Z,99.99
2018-03-11T03:52:56.118Z,99.91
2018-03-11T03:53:56.106Z,99.63
2018-03-11T03:54:56.092Z,99.63
2018-03-11T03:55:56.083Z,99.63
2018-03-11T03:56:56.073Z,99.99
2018-03-11T03:57:56.059Z,99.82
2018-03-11T03:58:56.046Z,99.82
2018-03-11T03:59:55.783Z,99.82
2018-03-11T04:00:56.028Z,99.99
2018-03-11T04:01:55.757Z,99.99
2018-03-11T04:02:56.001Z,99.99
2018-03-11T04:03:55.991Z,99.63
2018-03-11T04:04:55.979Z,99.91
2018-03-11T04:05:55.968Z,99.91
2018-03-11T04:06:55.956Z,99.99
2018-03-11T04:07:55.943Z,99.73
2018-03-11T04:08:55.929Z,99.99
2018-03-11T04:09:55.920Z,99.99
2018-03-11T04:10:55.905Z,99.99
2018-03-11T04:11:55.897Z,99.99
2018-03-11T04:12:55.883Z,99.91
2018-03-11T04:13:55.874Z,99.91
2018-03-11T04:14:55.860Z,99.99
2018-03-11T04:15:55.851Z,99.82
2018-03-11T04:16:55.839Z,99.91
2018-03-11T04:17:55.570Z,99.82
2018-03-11T04:18:55.815Z,99.54
2018-03-11T04:19:55.808Z,99.99
2018-03-11T04:20:55.803Z,99.82
2018-03-11T04:21:55.781Z,99.54
2018-03-11T04:22:55.768Z,99.63
2018-03-11T04:23:55.754Z,99.99
2018-03-11T04:24:55.746Z,99.91
2018-03-11T04:25:55.733Z,99.63
2018-03-11T04:26:55.721Z,99.82
2018-03-11T04:27:55.704Z,99.82
2018-03-11T04:28:55.705Z,99.54
2018-03-11T04:29:55.686Z,99.63
2018-03-11T04:30:55.671Z,99.82
2018-03-11T04:31:55.667Z,99.99
2018-03-11T04:32:55.647Z,99.99
2018-03-11T04:33:55.382Z,99.99
2018-03-11T04:34:55.624Z,99.99
2018-03-11T04:35:55.615Z,99.99
2018-03-11T04:36:55.605Z,99.99
2018-03-11T04:37:55.593Z,99.99
2018-03-11T04:38:55.579Z,99.99
2018-03-11T04:39:55.567Z,99.99
2018-03-11T04:40:55.556Z,99.99
2018-03-11T04:41:55.543Z,99.99
2018-03-11T04:42:55.534Z,99.63
2018-03-11T04:43:55.519Z,99.82
2018-03-11T04:44:55.509Z,99.99
2018-03-11T04:45:55.241Z,99.63
2018-03-11T04:46:55.484Z,99.63
2018-03-11T04:47:55.475Z,99.82
2018-03-11T04:48:55.208Z,99.91
2018-03-11T04:49:55.449Z,99.99
2018-03-11T04:50:55.438Z,99.63
2018-03-11T04:51:55.428Z,99.63
2018-03-11T04:52:55.413Z,99.63
2018-03-11T04:53:55.148Z,99.82
2018-03-11T04:54:55.139Z,99.91
2018-03-11T04:55:55.382Z,99.63
2018-03-11T04:56:55.363Z,99.73
2018-03-11T04:57:55.353Z,99.63
2018-03-11T04:58:55.344Z,99.82
2018-03-11T04:59:55.333Z,99.73
2018-03-11T05:00:55.321Z,99.82
2018-03-11T05:01:55.310Z,99.54
2018-03-11T05:02:55.303Z,99.73
2018-03-11T05:03:55.282Z,99.63
2018-03-11T05:04:55.018Z,99.58
2018-03-11T05:05:55.260Z,99.58
2018-03-11T05:06:55.256Z,99.39
2018-03-11T05:07:55.240Z,99.77
2018-03-11T05:08:54.975Z,99.68
2018-03-11T05:09:54.965Z,99.58
2018-03-11T05:10:54.947Z,99.73
2018-03-11T05:11:54.936Z,99.68
2018-03-11T05:12:55.177Z,99.77
2018-03-11T05:13:54.913Z,99.63
2018-03-11T05:14:54.899Z,99.87
2018-03-11T05:15:54.886Z,99.77
2018-03-11T05:16:55.130Z,99.77
2018-03-11T05:17:54.871Z,99.87
2018-03-11T05:18:54.853Z,99.82
2018-03-11T05:19:54.840Z,99.68
2018-03-11T05:20:54.831Z,99.58
2018-03-11T05:21:55.074Z,99.68
2018-03-11T05:22:54.804Z,99.58
2018-03-11T05:23:54.792Z,99.77
2018-03-11T05:24:54.782Z,99.77
2018-03-11T05:25:54.771Z,99.96
2018-03-11T05:26:55.011Z,99.96
2018-03-11T05:27:55.003Z,99.96
2018-03-11T05:28:54.992Z,99.58
2018-03-11T05:29:54.975Z,99.58
2018-03-11T05:30:54.968Z,99.58
2018-03-11T05:31:54.952Z,99.77
2018-03-11T05:32:54.944Z,99.96
2018-03-11T05:33:54.673Z,99.87
2018-03-11T05:34:54.923Z,99.96
2018-03-11T05:35:54.908Z,99.68
2018-03-11T05:36:54.952Z,99.96
2018-03-11T05:37:54.882Z,99.87
2018-03-11T05:38:54.883Z,99.87
2018-03-11T05:39:54.859Z,99.77
2018-03-11T05:40:54.850Z,99.77
2018-03-11T05:41:54.834Z,99.77
2018-03-11T05:42:54.824Z,99.77
2018-03-11T05:43:54.811Z,99.77
2018-03-11T05:44:54.802Z,99.58
2018-03-11T05:45:54.788Z,99.77
2018-03-11T05:46:54.774Z,99.87
2018-03-11T05:47:54.765Z,99.58
2018-03-11T05:48:54.749Z,99.87
2018-03-11T05:49:54.745Z,99.77
2018-03-11T05:50:54.731Z,99.58
2018-03-11T05:51:54.719Z,99.77
2018-03-11T05:52:54.701Z,99.87
2018-03-11T05:53:54.705Z,99.63
2018-03-11T05:54:54.680Z,99.82
2018-03-11T05:55:54.671Z,99.87
2018-03-11T05:56:54.666Z,99.68
2018-03-11T05:57:54.647Z,99.87
2018-03-11T05:58:54.633Z,99.82
2018-03-11T05:59:54.621Z,99.91
2018-03-11T06:00:54.609Z,99.73
2018-03-11T06:01:54.608Z,99.82
2018-03-11T06:02:54.370Z,99.73
2018-03-11T06:03:54.575Z,99.73
2018-03-11T06:04:54.562Z,99.58
2018-03-11T06:05:54.554Z,99.77
2018-03-11T06:06:54.542Z,99.87
2018-03-11T06:07:54.529Z,99.21
2018-03-11T06:08:54.522Z,99.3
2018-03-11T06:09:54.255Z,99.16
2018-03-11T06:10:54.499Z,99.16
2018-03-11T06:11:54.491Z,99.07
2018-03-11T06:12:54.477Z,98.97
2018-03-11T06:13:54.464Z,98.26
2018-03-11T06:14:54.456Z,98.55
2018-03-11T06:15:54.450Z,98.36
2018-03-11T06:16:54.459Z,98.41
2018-03-11T06:17:54.426Z,98.69
2018-03-11T06:18:54.417Z,97.64
2018-03-11T06:19:54.409Z,98.22
2018-03-11T06:20:54.409Z,98.17
2018-03-11T06:21:54.393Z,97.79
2018-03-11T06:22:54.387Z,97.6
2018-03-11T06:23:54.382Z,97.03
2018-03-11T06:24:54.367Z,96.7
2018-03-11T06:25:54.358Z,97.27
2018-03-11T06:26:54.349Z,96.98
2018-03-11T06:27:54.338Z,96.7
2018-03-11T06:28:54.333Z,96.7
2018-03-11T06:29:54.326Z,96.36
2018-03-11T06:30:54.320Z,96.08
2018-03-11T06:31:54.313Z,96.55
2018-03-11T06:32:54.301Z,95.98
2018-03-11T06:33:54.305Z,96.12
2018-03-11T06:34:54.290Z,95.36
2018-03-11T06:35:54.281Z,95.7
2018-03-11T06:36:54.281Z,95.79
2018-03-11T06:37:54.272Z,95.12
2018-03-11T06:38:54.298Z,95.12
2018-03-11T06:39:54.258Z,94.79
2018-03-11T06:40:54.247Z,94.7
2018-03-11T06:41:54.248Z,94.22
2018-03-11T06:42:54.236Z,94.12
2018-03-11T06:43:54.232Z,93.31
2018-03-11T06:44:54.230Z,92.65
2018-03-11T06:45:54.218Z,93.22
2018-03-11T06:46:54.215Z,92.74
2018-03-11T06:47:54.211Z,92.83
2018-03-11T06:48:54.204Z,92.41
2018-03-11T06:49:54.199Z,92.5
2018-03-11T06:50:54.196Z,91.74
2018-03-11T06:51:54.189Z,91.26
2018-03-11T06:52:54.185Z,91.07
2018-03-11T06:53:54.226Z,90.73
2018-03-11T06:54:54.180Z,90.73
2018-03-11T06:55:54.175Z,90.16
2018-03-11T06:56:54.171Z,89.06
2018-03-11T06:57:54.166Z,88.96
2018-03-11T06:58:54.166Z,89.25
2018-03-11T06:59:54.160Z,88.48
2018-03-11T07:00:54.153Z,88.68
2018-03-11T07:01:53.897Z,87.53
2018-03-11T07:02:54.152Z,88.05
2018-03-11T07:03:54.142Z,88.15
2018-03-11T07:04:54.142Z,87.38
2018-03-11T07:05:54.194Z,87.19
2018-03-11T07:06:54.140Z,87.09
2018-03-11T07:07:54.136Z,86.8
2018-03-11T07:08:54.132Z,86.85
2018-03-11T07:09:54.128Z,86.47
2018-03-11T07:10:54.185Z,86.47
2018-03-11T07:11:54.124Z,86.08
2018-03-11T07:12:54.122Z,85.41
2018-03-11T07:13:54.123Z,85.55
2018-03-11T07:14:54.120Z,85.17
2018-03-11T07:15:54.122Z,85.27
2018-03-11T07:16:54.114Z,84.59
2018-03-11T07:17:54.111Z,84.02
2018-03-11T07:18:54.113Z,83.93
2018-03-11T07:19:54.110Z,84.35
2018-03-11T07:20:54.112Z,83.97
2018-03-11T07:21:54.117Z,83.49
2018-03-11T07:22:54.106Z,83.11
2018-03-11T07:23:54.109Z,83.39
2018-03-11T07:24:54.105Z,82.53
2018-03-11T07:25:54.107Z,83.2
2018-03-11T07:26:54.113Z,82.82
2018-03-11T07:27:54.105Z,82.24
2018-03-11T07:28:54.107Z,82.06
2018-03-11T07:29:53.850Z,82.34
2018-03-11T07:30:53.851Z,82.53
2018-03-11T07:31:54.106Z,82.34
2018-03-11T07:32:53.850Z,82.29
2018-03-11T07:33:54.106Z,82.38
2018-03-11T07:34:54.108Z,81.62
2018-03-11T07:35:53.854Z,81.62
2018-03-11T07:36:54.108Z,81.33
2018-03-11T07:37:54.112Z,81.37
2018-03-11T07:38:54.110Z,81.08
2018-03-11T07:39:54.107Z,80.51
2018-03-11T07:40:53.850Z,80.99
2018-03-11T07:41:54.106Z,80.51
2018-03-11T07:42:54.107Z,80.32
2018-03-11T07:43:54.108Z,80.7
2018-03-11T07:44:54.120Z,80.41
2018-03-11T07:45:54.117Z,79.74
2018-03-11T07:46:54.112Z,79.74
2018-03-11T07:47:54.110Z,79.64
2018-03-11T07:48:54.122Z,80.56
2018-03-11T07:49:54.112Z,80.76
2018-03-11T07:50:53.886Z,80.85
2018-03-11T07:51:53.854Z,80.62
2018-03-11T07:52:53.858Z,81.48
2018-03-11T07:53:53.855Z,82.15
2018-03-11T07:54:54.117Z,81.67
2018-03-11T07:55:53.859Z,82.68
2018-03-11T07:56:54.116Z,83.36
2018-03-11T07:57:54.109Z,82.97
2018-03-11T07:58:53.856Z,83.26
2018-03-11T07:59:54.114Z,84.02
2018-03-11T08:00:53.856Z,83.5
2018-03-11T08:01:53.855Z,84.75
2018-03-11T08:02:53.853Z,84.75
2018-03-11T08:03:53.852Z,85.51
2018-03-11T08:04:53.855Z,85.89
2018-03-11T08:05:54.107Z,86.18
2018-03-11T08:06:53.850Z,86.37
2018-03-11T08:07:54.108Z,86.8
2018-03-11T08:08:53.847Z,86.8
2018-03-11T08:09:54.103Z,87.66
2018-03-11T08:10:54.106Z,87.76
2018-03-11T08:11:54.104Z,87.95
2018-03-11T08:12:54.097Z,88.15
2018-03-11T08:13:54.097Z,88.34
2018-03-11T08:14:54.092Z,88.96
2018-03-11T08:15:53.835Z,88.96
2018-03-11T08:16:53.834Z,89.44
2018-03-11T08:17:54.088Z,89.82
2018-03-11T08:18:54.085Z,90.59
2018-03-11T08:19:54.086Z,90.59
2018-03-11T08:20:53.831Z,91.3
2018-03-11T08:21:53.820Z,91.5
2018-03-11T08:22:54.072Z,91.5
2018-03-11T08:23:54.067Z,91.59
2018-03-11T08:24:54.065Z,91.69
2018-03-11T08:25:53.853Z,91.78
2018-03-11T08:26:54.059Z,92.36
2018-03-11T08:27:54.104Z,92.26
2018-03-11T08:28:54.051Z,92.45
2018-03-11T08:29:54.044Z,92.45
2018-03-11T08:30:53.784Z,92.36
2018-03-11T08:31:54.037Z,92.26
2018-03-11T08:32:54.038Z,92.55
2018-03-11T08:33:54.034Z,92.55
2018-03-11T08:34:53.765Z,92.64
2018-03-11T08:35:54.020Z,92.64
2018-03-11T08:36:54.031Z,92.55
2018-03-11T08:37:54.027Z,92.55
2018-03-11T08:38:53.747Z,92.74
2018-03-11T08:39:54.002Z,92.83
2018-03-11T08:40:53.738Z,92.74
2018-03-11T08:41:53.987Z,92.74
2018-03-11T08:42:54.029Z,92.74
2018-03-11T08:43:53.979Z,93.31
2018-03-11T08:44:53.975Z,93.5
2018-03-11T08:45:53.975Z,92.64
2018-03-11T08:46:53.708Z,92.93
2018-03-11T08:47:53.701Z,92.36
2018-03-11T08:48:53.954Z,92.83
2018-03-11T08:49:53.952Z,92.83
2018-03-11T08:50:53.687Z,93.5
2018-03-11T08:51:53.934Z,93.31
2018-03-11T08:52:53.681Z,92.55
2018-03-11T08:53:54.053Z,92.74
2018-03-11T08:54:53.683Z,92.55
2018-03-11T08:55:53.917Z,93.21
2018-03-11T08:56:53.657Z,93.02
2018-03-11T08:57:53.905Z,93.31
2018-03-11T08:58:53.901Z,93.31
2018-03-11T08:59:53.898Z,93.12
2018-03-11T09:00:53.636Z,93.31
2018-03-11T09:01:53.906Z,92.36
2018-03-11T09:02:53.629Z,92.5
2018-03-11T09:03:53.880Z,92.97
2018-03-11T09:04:53.874Z,92.69
2018-03-11T09:05:53.610Z,92.59
2018-03-11T09:06:53.863Z,92.79
2018-03-11T09:07:53.601Z,93.07
2018-03-11T09:08:53.857Z,92.97
2018-03-11T09:09:53.848Z,93.45
2018-03-11T09:10:53.839Z,92.88
2018-03-11T09:11:53.831Z,92.97
2018-03-11T09:12:53.826Z,92.69
2018-03-11T09:13:53.569Z,92.69
2018-03-11T09:14:53.817Z,92.69
2018-03-11T09:17:53.550Z,93.21
2018-03-11T09:18:53.543Z,92.88
2018-03-11T09:19:53.793Z,92.74
2018-03-11T09:20:53.789Z,93.02
2018-03-11T09:21:53.527Z,92.07
2018-03-11T09:22:53.775Z,92.54
2018-03-11T09:23:53.783Z,92.64
2018-03-11T09:24:55.242Z,92.45
2018-03-11T09:26:53.754Z,91.97
2018-03-11T09:27:53.498Z,92.07
2018-03-11T09:28:53.491Z,91.59
2018-03-11T09:29:53.750Z,91.78
2018-03-11T09:30:53.740Z,91.3
2018-03-11T09:31:53.476Z,91.06
2018-03-11T09:32:53.727Z,91.2
2018-03-11T09:33:53.727Z,91.39
2018-03-11T09:34:53.810Z,91.16
2018-03-11T09:35:53.709Z,90.63
2018-03-11T09:36:53.458Z,91.11
2018-03-11T09:37:53.706Z,91.2
2018-03-11T09:40:53.689Z,91.16
2018-03-11T09:41:53.681Z,91.25
2018-03-11T09:42:53.423Z,91.16
2018-03-11T09:43:53.679Z,90.77
2018-03-11T09:44:53.429Z,90.77
2018-03-11T09:45:53.671Z,90.87
2018-03-11T09:46:53.661Z,90.48
2018-03-11T09:47:53.659Z,90.87
2018-03-11T09:48:53.654Z,90.67
2018-03-11T09:49:53.647Z,90.48
2018-03-11T09:50:53.645Z,90.58
2018-03-11T09:51:53.650Z,90.48
2018-03-11T09:52:53.377Z,90.3
2018-03-11T09:53:53.630Z,90.3
2018-03-11T09:54:53.626Z,90.67
2018-03-11T09:55:53.620Z,90.1
2018-03-11T09:56:53.422Z,90.3
2018-03-11T09:57:53.610Z,89.91
2018-03-11T09:58:53.605Z,89.72
2018-03-11T09:59:53.600Z,89.43
2018-03-11T10:00:53.598Z,89.53
2018-03-11T10:01:53.337Z,89.53
2018-03-11T10:02:53.333Z,89.09
2018-03-11T10:03:53.325Z,89.05
2018-03-11T10:04:53.575Z,89.09
2018-03-11T10:05:53.317Z,88.9
2018-03-11T10:06:53.564Z,89
2018-03-11T10:07:53.309Z,89
2018-03-11T10:08:53.560Z,89.29
2018-03-11T10:09:53.762Z,88.9
2018-03-11T10:10:53.549Z,89.38
2018-03-11T10:11:53.545Z,88.9
2018-03-11T10:12:53.538Z,88.9
2018-03-11T10:13:53.544Z,88.13
2018-03-11T10:14:53.529Z,88.23
2018-03-11T10:15:53.528Z,87.76
2018-03-11T10:16:53.530Z,87.99
2018-03-11T10:17:53.542Z,87.23
2018-03-11T10:18:54.314Z,87.23
2018-03-11T10:19:53.512Z,87.23
2018-03-11T10:20:53.504Z,87.13
2018-03-11T10:21:53.580Z,86.94
2018-03-11T10:22:53.495Z,87.03
2018-03-11T10:23:53.493Z,86.17
2018-03-11T10:24:53.490Z,86.27
2018-03-11T10:25:53.501Z,86.17
2018-03-11T10:26:53.482Z,85.98
2018-03-11T10:27:53.477Z,85.88
2018-03-11T10:28:53.470Z,85.88
2018-03-11T10:29:53.466Z,85.88
2018-03-11T10:30:53.483Z,86.08
2018-03-11T10:31:53.215Z,85.88
2018-03-11T10:32:53.200Z,85.79
2018-03-11T10:33:53.456Z,86.21
2018-03-11T10:34:53.452Z,85.25
2018-03-11T10:35:53.444Z,85.35
2018-03-11T10:36:53.500Z,85.25
2018-03-11T10:37:53.488Z,84.97
2018-03-11T10:38:53.437Z,84.78
2018-03-11T10:39:53.174Z,84.58
2018-03-11T10:40:53.429Z,84.97
2018-03-11T10:41:53.420Z,84.97
2018-03-11T10:42:53.423Z,84.78
2018-03-11T10:43:53.415Z,84.11
2018-03-11T10:44:53.410Z,84.68
2018-03-11T10:45:53.405Z,84.39
2018-03-11T10:46:53.404Z,84.2
2018-03-11T10:47:53.400Z,84.78
2018-03-11T10:48:53.394Z,84.88
2018-03-11T10:49:53.437Z,84.58
2018-03-11T10:50:53.511Z,83.92
2018-03-11T10:51:53.389Z,84.2
2018-03-11T10:52:53.380Z,84.01
2018-03-11T10:53:53.375Z,83.86
2018-03-11T10:54:53.373Z,83.86
2018-03-11T10:55:53.374Z,83.86
2018-03-11T10:56:53.364Z,83.38
2018-03-11T10:57:53.109Z,83.09
2018-03-11T10:58:53.103Z,83.38
2018-03-11T10:59:53.353Z,83.29
2018-03-11T11:00:53.098Z,83.67
2018-03-11T11:01:53.347Z,83.76
2018-03-11T11:02:53.345Z,83.76
2018-03-11T11:03:53.347Z,83.76
2018-03-11T11:04:53.338Z,83.19
2018-03-11T11:05:53.332Z,83.38
2018-03-11T11:06:53.333Z,82.62
2018-03-11T11:07:53.323Z,83.09
2018-03-11T11:08:53.321Z,82.32
2018-03-11T11:09:53.318Z,83.09
2018-03-11T11:10:53.313Z,82.46
2018-03-11T11:11:53.316Z,81.98
2018-03-11T11:12:53.307Z,81.98
2018-03-11T11:13:53.303Z,82.18
2018-03-11T11:14:53.309Z,81.41
2018-03-11T11:15:53.306Z,81.41
2018-03-11T11:16:53.298Z,81.41
2018-03-11T11:17:53.295Z,81.07
2018-03-11T11:18:53.288Z,80.97
2018-03-11T11:19:53.296Z,80.68
2018-03-11T11:20:53.288Z,79.76
2018-03-11T11:21:53.282Z,79.67
2018-03-11T11:22:53.278Z,79.47
2018-03-11T11:23:53.019Z,79.38
2018-03-11T11:24:53.272Z,78.9
2018-03-11T11:25:53.268Z,79.38
2018-03-11T11:26:53.263Z,79.76
2018-03-11T11:27:53.261Z,79.09
2018-03-11T11:28:53.304Z,79.28
2018-03-11T11:29:53.460Z,79.28
2018-03-11T11:30:53.271Z,79.19
2018-03-11T11:31:53.253Z,79.09
2018-03-11T11:32:53.249Z,78.9
2018-03-11T11:33:52.994Z,78.23
2018-03-11T11:34:52.988Z,78.32
2018-03-11T11:35:53.247Z,78.52
2018-03-11T11:36:53.246Z,79.28
2018-03-11T11:37:53.237Z,79.28
2018-03-11T11:38:53.234Z,77.94
2018-03-11T11:39:53.239Z,78.13
2018-03-11T11:40:53.248Z,77.88
2018-03-11T11:41:53.236Z,78.27
2018-03-11T11:42:52.971Z,78.55
2018-03-11T11:43:53.226Z,78.08
2018-03-11T11:44:53.222Z,77.63
2018-03-11T11:45:53.220Z,76.67
2018-03-11T11:46:53.218Z,76.19
2018-03-11T11:47:53.214Z,76.67
2018-03-11T11:48:53.319Z,76.19
2018-03-11T11:49:53.214Z,76
2018-03-11T11:50:52.955Z,75.81
2018-03-11T11:51:53.207Z,76.09
2018-03-11T11:52:53.206Z,76.19
2018-03-11T11:53:52.949Z,76.29
2018-03-11T11:54:53.203Z,76.73
2018-03-11T11:55:53.200Z,77.5
2018-03-11T11:56:53.210Z,77.5
2018-03-11T11:57:53.195Z,77.84
2018-03-11T11:58:53.191Z,78.23
2018-03-11T11:59:53.201Z,78.42
2018-03-11T12:00:53.187Z,78.32
2018-03-11T12:01:53.188Z,78.42
2018-03-11T12:02:53.184Z,78.32
2018-03-11T12:03:53.180Z,78.13
2018-03-11T12:04:53.180Z,78.23
2018-03-11T12:05:53.191Z,78.32
2018-03-11T12:06:53.175Z,79.09
2018-03-11T12:07:53.193Z,79.09
2018-03-11T12:08:53.172Z,79.24
2018-03-11T12:09:52.912Z,78.96
2018-03-11T12:10:52.911Z,79.24
2018-03-11T12:11:53.163Z,79.72
2018-03-11T12:12:53.159Z,79.82
2018-03-11T12:13:53.160Z,80.11
2018-03-11T12:14:53.158Z,80.49
2018-03-11T12:15:53.154Z,80.3
2018-03-11T12:16:53.149Z,79.91
2018-03-11T12:17:53.149Z,79.82
2018-03-11T12:18:53.144Z,80.01
2018-03-11T12:19:53.139Z,80.2
2018-03-11T12:20:53.143Z,80.3
2018-03-11T12:21:53.141Z,80.01
2018-03-11T12:22:53.145Z,80.11
2018-03-11T12:23:53.143Z,79.82
2018-03-11T12:24:53.129Z,80.01
2018-03-11T12:25:53.123Z,80.01
2018-03-11T12:26:53.120Z,80.2
2018-03-11T12:27:53.145Z,80.11
2018-03-11T12:28:52.863Z,80.2
2018-03-11T12:29:53.113Z,80.49
2018-03-11T12:30:53.114Z,80.49
2018-03-11T12:31:52.853Z,80.01
2018-03-11T12:32:53.105Z,80.49
2018-03-11T12:33:52.858Z,80.3
2018-03-11T12:34:53.101Z,80.11
2018-03-11T12:35:53.098Z,80.4
2018-03-11T12:36:52.838Z,80.3
2018-03-11T12:37:53.092Z,80.01
2018-03-11T12:38:53.092Z,80.11
2018-03-11T12:39:53.088Z,80.11
2018-03-11T12:40:53.080Z,79.53
2018-03-11T12:41:53.078Z,79.05
2018-03-11T12:42:53.074Z,79.24
2018-03-11T12:43:53.075Z,79.72
2018-03-11T12:44:53.071Z,80.01
2018-03-11T12:45:53.066Z,79.72
2018-03-11T12:46:53.078Z,79.82
2018-03-11T12:47:53.066Z,79.72
2018-03-11T12:48:53.066Z,79.82
2018-03-11T12:49:53.055Z,79.72
2018-03-11T12:50:53.054Z,79.72
2018-03-11T12:51:53.050Z,79.72
2018-03-11T12:52:53.068Z,79.63
2018-03-11T12:53:53.041Z,79.91
2018-03-11T12:54:53.062Z,79.72
2018-03-11T12:55:53.039Z,79.72
2018-03-11T12:56:53.036Z,79.63
2018-03-11T12:57:52.780Z,79.63
2018-03-11T12:58:53.028Z,79.53
2018-03-11T12:59:53.026Z,79.14